sensor_id;sensor_type;location;lat;lon;timestamp;temperature;humidity
60242;SHT30;46103;52.076;113.488;2024-02-16T00:03:17;-16.46;63.51
60242;SHT30;46103;52.076;113.488;2024-02-16T00:06:36;-16.37;62.62
60242;SHT30;46103;52.076;113.488;2024-02-16T00:13:24;-15.93;62.53
60242;SHT30;46103;52.076;113.488;2024-02-16T00:16:33;-15.78;61.41
60242;SHT30;46103;52.076;113.488;2024-02-16T00:19:39;-15.59;60.83
60242;SHT30;46103;52.076;113.488;2024-02-16T00:22:48;-15.69;60.44
60242;SHT30;46103;52.076;113.488;2024-02-16T00:26:06;-16.12;61.59
60242;SHT30;46103;52.076;113.488;2024-02-16T00:32:45;-15.85;61.80
60242;SHT30;46103;52.076;113.488;2024-02-16T00:35:52;-15.55;61.23
60242;SHT30;46103;52.076;113.488;2024-02-16T00:39:01;-15.31;60.37
60242;SHT30;46103;52.076;113.488;2024-02-16T00:42:18;-15.13;59.61
60242;SHT30;46103;52.076;113.488;2024-02-16T00:49:07;-15.05;58.70
60242;SHT30;46103;52.076;113.488;2024-02-16T00:52:31;-15.02;57.99
60242;SHT30;46103;52.076;113.488;2024-02-16T00:55:41;-15.03;58.12
60242;SHT30;46103;52.076;113.488;2024-02-16T00:58:51;-15.05;58.42
60242;SHT30;46103;52.076;113.488;2024-02-16T01:01:59;-14.89;58.72
60242;SHT30;46103;52.076;113.488;2024-02-16T01:05:04;-14.74;58.40
60242;SHT30;46103;52.076;113.488;2024-02-16T01:08:17;-14.69;58.48
60242;SHT30;46103;52.076;113.488;2024-02-16T01:11:44;-14.69;57.99
60242;SHT30;46103;52.076;113.488;2024-02-16T01:15:06;-14.44;58.06
60242;SHT30;46103;52.076;113.488;2024-02-16T01:18:13;-14.48;57.94
60242;SHT30;46103;52.076;113.488;2024-02-16T01:21:17;-14.28;57.69
60242;SHT30;46103;52.076;113.488;2024-02-16T01:24:30;-14.01;57.07
60242;SHT30;46103;52.076;113.488;2024-02-16T01:27:36;-13.86;56.79
60242;SHT30;46103;52.076;113.488;2024-02-16T01:30:49;-13.70;56.58
60242;SHT30;46103;52.076;113.488;2024-02-16T01:33:56;-13.70;56.30
60242;SHT30;46103;52.076;113.488;2024-02-16T01:37:42;-13.40;56.21
60242;SHT30;46103;52.076;113.488;2024-02-16T01:40:52;-13.22;55.42
60242;SHT30;46103;52.076;113.488;2024-02-16T01:44:09;-13.09;54.96
60242;SHT30;46103;52.076;113.488;2024-02-16T01:51:25;-12.98;54.89
60242;SHT30;46103;52.076;113.488;2024-02-16T01:54:34;-12.88;54.74
60242;SHT30;46103;52.076;113.488;2024-02-16T01:58:14;-13.57;54.59
60242;SHT30;46103;52.076;113.488;2024-02-16T02:08:48;-13.81;56.87
60242;SHT30;46103;52.076;113.488;2024-02-16T02:12:35;-13.46;56.23
60242;SHT30;46103;52.076;113.488;2024-02-16T03:32:17;-10.21;50.95
60242;SHT30;46103;52.076;113.488;2024-02-16T03:36:01;-10.02;50.39
60242;SHT30;46103;52.076;113.488;2024-02-16T03:40:31;-9.64;49.54
60242;SHT30;46103;52.076;113.488;2024-02-16T03:45:08;-9.36;48.91
60242;SHT30;46103;52.076;113.488;2024-02-16T03:49:32;-9.02;48.06
60242;SHT30;46103;52.076;113.488;2024-02-16T03:53:49;-9.59;48.62
60242;SHT30;46103;52.076;113.488;2024-02-16T03:58:35;-9.82;49.47
60242;SHT30;46103;52.076;113.488;2024-02-16T04:03:07;-9.82;49.81
60242;SHT30;46103;52.076;113.488;2024-02-16T04:06:42;-9.97;49.91
60242;SHT30;46103;52.076;113.488;2024-02-16T04:09:51;-9.60;50.26
60242;SHT30;46103;52.076;113.488;2024-02-16T04:13:26;-9.28;49.17
60242;SHT30;46103;52.076;113.488;2024-02-16T04:16:49;-9.21;48.59
60242;SHT30;46103;52.076;113.488;2024-02-16T04:20:12;-9.02;48.27
60242;SHT30;46103;52.076;113.488;2024-02-16T04:23:17;-8.94;47.88
60242;SHT30;46103;52.076;113.488;2024-02-16T04:26:26;-8.54;47.92
60242;SHT30;46103;52.076;113.488;2024-02-16T04:29:43;-8.22;46.67
60242;SHT30;46103;52.076;113.488;2024-02-16T04:32:47;-8.11;46.30
60242;SHT30;46103;52.076;113.488;2024-02-16T04:35:52;-8.01;45.90
60242;SHT30;46103;52.076;113.488;2024-02-16T04:43:06;-8.19;46.15
60242;SHT30;46103;52.076;113.488;2024-02-16T04:46:15;-8.12;46.46
60242;SHT30;46103;52.076;113.488;2024-02-16T04:49:19;-8.33;46.31
60242;SHT30;46103;52.076;113.488;2024-02-16T04:56:12;-8.14;46.77
60242;SHT30;46103;52.076;113.488;2024-02-16T04:59:29;-8.17;46.50
60242;SHT30;46103;52.076;113.488;2024-02-16T05:02:35;-8.01;46.71
60242;SHT30;46103;52.076;113.488;2024-02-16T05:06:00;-7.83;46.17
60242;SHT30;46103;52.076;113.488;2024-02-16T05:09:14;-7.81;45.63
60242;SHT30;46103;52.076;113.488;2024-02-16T05:12:24;-8.22;46.04
60242;SHT30;46103;52.076;113.488;2024-02-16T05:15:31;-8.30;47.03
60242;SHT30;46103;52.076;113.488;2024-02-16T05:18:36;-8.26;46.59
60242;SHT30;46103;52.076;113.488;2024-02-16T05:22:03;-8.12;46.93
60242;SHT30;46103;52.076;113.488;2024-02-16T05:25:27;-8.01;46.55
60242;SHT30;46103;52.076;113.488;2024-02-16T05:28:36;-8.04;46.38
60242;SHT30;46103;52.076;113.488;2024-02-16T05:31:41;-7.97;46.23
60242;SHT30;46103;52.076;113.488;2024-02-16T05:35:03;-7.94;46.58
60242;SHT30;46103;52.076;113.488;2024-02-16T05:47:20;-7.95;46.67
60242;SHT30;46103;52.076;113.488;2024-02-16T05:51:46;-7.73;46.40
60242;SHT30;46103;52.076;113.488;2024-02-16T05:55:22;-7.64;46.34
60242;SHT30;46103;52.076;113.488;2024-02-16T05:58:43;-7.99;46.90
60242;SHT30;46103;52.076;113.488;2024-02-16T06:01:55;-7.99;47.50
60242;SHT30;46103;52.076;113.488;2024-02-16T06:05:13;-7.80;47.16
60242;SHT30;46103;52.076;113.488;2024-02-16T06:08:36;-7.63;46.40
60242;SHT30;46103;52.076;113.488;2024-02-16T06:11:43;-7.50;46.15
60242;SHT30;46103;52.076;113.488;2024-02-16T06:15:39;-7.22;46.02
60242;SHT30;46103;52.076;113.488;2024-02-16T06:25:40;-6.50;43.90
60242;SHT30;46103;52.076;113.488;2024-02-16T06:35:37;-6.63;44.84
60242;SHT30;46103;52.076;113.488;2024-02-16T07:06:17;-6.91;46.07
60242;SHT30;46103;52.076;113.488;2024-02-16T07:11:10;-6.63;45.13
60242;SHT30;46103;52.076;113.488;2024-02-16T07:15:34;-6.60;44.77
60242;SHT30;46103;52.076;113.488;2024-02-16T07:19:45;-6.69;45.10
60242;SHT30;46103;52.076;113.488;2024-02-16T07:23:53;-7.05;46.05
60242;SHT30;46103;52.076;113.488;2024-02-16T07:48:00;-8.30;49.13
60242;SHT30;46103;52.076;113.488;2024-02-16T08:05:49;-8.38;49.43
60242;SHT30;46103;52.076;113.488;2024-02-16T08:10:26;-8.52;49.62
60242;SHT30;46103;52.076;113.488;2024-02-16T08:19:54;-8.79;51.47
60242;SHT30;46103;52.076;113.488;2024-02-16T08:44:48;-9.22;53.86
60242;SHT30;46103;52.076;113.488;2024-02-16T09:46:37;-10.32;63.24
60242;SHT30;46103;52.076;113.488;2024-02-16T10:01:29;-10.84;65.01
60242;SHT30;46103;52.076;113.488;2024-02-16T10:05:37;-10.97;65.00
60242;SHT30;46103;52.076;113.488;2024-02-16T10:10:29;-11.08;65.52
60242;SHT30;46103;52.076;113.488;2024-02-16T10:14:19;-11.19;65.51
60242;SHT30;46103;52.076;113.488;2024-02-16T10:17:26;-11.26;65.83
60242;SHT30;46103;52.076;113.488;2024-02-16T10:20:36;-11.26;66.00
60242;SHT30;46103;52.076;113.488;2024-02-16T10:38:25;-12.08;68.79
60242;SHT30;46103;52.076;113.488;2024-02-16T10:41:53;-12.11;69.79
60242;SHT30;46103;52.076;113.488;2024-02-16T11:00:12;-11.82;67.44
60242;SHT30;46103;52.076;113.488;2024-02-16T11:03:27;-11.90;66.89
60242;SHT30;46103;52.076;113.488;2024-02-16T11:06:55;-11.91;67.03
60242;SHT30;46103;52.076;113.488;2024-02-16T11:10:40;-11.92;67.59
60242;SHT30;46103;52.076;113.488;2024-02-16T11:15:00;-12.03;67.85
60242;SHT30;46103;52.076;113.488;2024-02-16T11:18:06;-12.11;67.28
60242;SHT30;46103;52.076;113.488;2024-02-16T11:21:25;-12.19;67.68
60242;SHT30;46103;52.076;113.488;2024-02-16T11:24:54;-12.32;67.67
60242;SHT30;46103;52.076;113.488;2024-02-16T11:28:06;-12.33;67.97
60242;SHT30;46103;52.076;113.488;2024-02-16T11:32:23;-12.35;68.36
60242;SHT30;46103;52.076;113.488;2024-02-16T11:48:33;-12.30;67.67
60242;SHT30;46103;52.076;113.488;2024-02-16T11:51:55;-12.33;68.35
60242;SHT30;46103;52.076;113.488;2024-02-16T11:58:40;-12.37;68.59
60242;SHT30;46103;52.076;113.488;2024-02-16T12:02:04;-12.22;68.32
60242;SHT30;46103;52.076;113.488;2024-02-16T12:05:31;-12.19;66.49
60242;SHT30;46103;52.076;113.488;2024-02-16T12:08:50;-12.15;66.07
60242;SHT30;46103;52.076;113.488;2024-02-16T12:12:21;-12.07;66.39
60242;SHT30;46103;52.076;113.488;2024-02-16T12:15:43;-11.99;66.72
60242;SHT30;46103;52.076;113.488;2024-02-16T12:19:06;-11.98;64.78
60242;SHT30;46103;52.076;113.488;2024-02-16T12:22:42;-12.07;65.37
60242;SHT30;46103;52.076;113.488;2024-02-16T12:26:02;-12.01;67.22
60242;SHT30;46103;52.076;113.488;2024-02-16T12:29:51;-11.91;66.26
60242;SHT30;46103;52.076;113.488;2024-02-16T12:33:43;-11.78;65.15
60242;SHT30;46103;52.076;113.488;2024-02-16T12:41:10;-11.74;64.07
60242;SHT30;46103;52.076;113.488;2024-02-16T12:44:52;-11.73;63.86
60242;SHT30;46103;52.076;113.488;2024-02-16T12:48:17;-11.75;63.70
60242;SHT30;46103;52.076;113.488;2024-02-16T12:51:24;-11.73;64.28
60242;SHT30;46103;52.076;113.488;2024-02-16T12:54:32;-11.67;63.82
60242;SHT30;46103;52.076;113.488;2024-02-16T12:57:39;-11.61;63.18
60242;SHT30;46103;52.076;113.488;2024-02-16T13:01:27;-11.57;62.91
60242;SHT30;46103;52.076;113.488;2024-02-16T13:05:26;-11.61;62.60
60242;SHT30;46103;52.076;113.488;2024-02-16T13:09:22;-11.63;62.83
60242;SHT30;46103;52.076;113.488;2024-02-16T13:12:28;-11.57;63.44
60242;SHT30;46103;52.076;113.488;2024-02-16T13:15:58;-11.54;63.44
60242;SHT30;46103;52.076;113.488;2024-02-16T13:19:16;-11.59;63.29
60242;SHT30;46103;52.076;113.488;2024-02-16T13:22:40;-11.54;63.43
60242;SHT30;46103;52.076;113.488;2024-02-16T13:26:24;-11.53;63.78
60242;SHT30;46103;52.076;113.488;2024-02-16T13:29:40;-11.56;63.24
60242;SHT30;46103;52.076;113.488;2024-02-16T13:32:58;-11.52;64.27
60242;SHT30;46103;52.076;113.488;2024-02-16T13:36:50;-11.63;64.49
60242;SHT30;46103;52.076;113.488;2024-02-16T13:41:06;-11.60;64.23
60242;SHT30;46103;52.076;113.488;2024-02-16T13:45:11;-11.64;63.91
60242;SHT30;46103;52.076;113.488;2024-02-16T14:08:47;-11.82;64.71
60242;SHT30;46103;52.076;113.488;2024-02-16T14:12:39;-11.85;64.79
60242;SHT30;46103;52.076;113.488;2024-02-16T14:20:07;-11.80;65.23
60242;SHT30;46103;52.076;113.488;2024-02-16T14:25:11;-11.73;65.01
60242;SHT30;46103;52.076;113.488;2024-02-16T14:29:22;-11.75;64.94
60242;SHT30;46103;52.076;113.488;2024-02-16T14:32:52;-12.09;64.69
60242;SHT30;46103;52.076;113.488;2024-02-16T14:37:12;-12.28;65.71
60242;SHT30;46103;52.076;113.488;2024-02-16T15:21:09;-11.99;66.58
60242;SHT30;46103;52.076;113.488;2024-02-16T15:24:15;-12.03;66.37
60242;SHT30;46103;52.076;113.488;2024-02-16T15:27:25;-11.95;66.02
60242;SHT30;46103;52.076;113.488;2024-02-16T15:31:04;-11.88;66.10
60242;SHT30;46103;52.076;113.488;2024-02-16T15:34:15;-11.95;65.67
60242;SHT30;46103;52.076;113.488;2024-02-16T15:44:40;-12.70;66.90
60242;SHT30;46103;52.076;113.488;2024-02-16T15:47:57;-12.73;67.61
60242;SHT30;46103;52.076;113.488;2024-02-16T15:51:20;-12.63;68.36
60242;SHT30;46103;52.076;113.488;2024-02-16T15:54:35;-12.53;68.12
60242;SHT30;46103;52.076;113.488;2024-02-16T15:58:20;-12.37;67.74
60242;SHT30;46103;52.076;113.488;2024-02-16T16:01:42;-12.22;67.23
60242;SHT30;46103;52.076;113.488;2024-02-16T16:05:06;-12.18;66.85
60242;SHT30;46103;52.076;113.488;2024-02-16T16:08:39;-12.11;66.07
60242;SHT30;46103;52.076;113.488;2024-02-16T16:12:30;-12.22;65.58
60242;SHT30;46103;52.076;113.488;2024-02-16T16:15:50;-12.19;65.87
60242;SHT30;46103;52.076;113.488;2024-02-16T16:18:58;-12.18;66.11
60242;SHT30;46103;52.076;113.488;2024-02-16T16:22:19;-12.21;66.17
60242;SHT30;46103;52.076;113.488;2024-02-16T16:25:42;-12.19;66.21
60242;SHT30;46103;52.076;113.488;2024-02-16T16:29:02;-12.30;66.26
60242;SHT30;46103;52.076;113.488;2024-02-16T16:32:26;-12.26;66.90
60242;SHT30;46103;52.076;113.488;2024-02-16T16:36:56;-12.21;66.65
60242;SHT30;46103;52.076;113.488;2024-02-16T16:40:46;-12.33;66.40
60242;SHT30;46103;52.076;113.488;2024-02-16T16:44:02;-12.28;66.71
60242;SHT30;46103;52.076;113.488;2024-02-16T16:47:16;-12.32;66.27
60242;SHT30;46103;52.076;113.488;2024-02-16T16:50:42;-12.30;66.10
60242;SHT30;46103;52.076;113.488;2024-02-16T16:53:55;-12.25;65.85
60242;SHT30;46103;52.076;113.488;2024-02-16T16:57:06;-12.24;65.73
60242;SHT30;46103;52.076;113.488;2024-02-16T17:00:16;-12.25;65.52
60242;SHT30;46103;52.076;113.488;2024-02-16T17:03:59;-12.29;65.28
60242;SHT30;46103;52.076;113.488;2024-02-16T17:07:08;-12.43;65.48
60242;SHT30;46103;52.076;113.488;2024-02-16T17:10:36;-12.66;65.34
60242;SHT30;46103;52.076;113.488;2024-02-16T17:14:11;-12.68;66.30
60242;SHT30;46103;52.076;113.488;2024-02-16T17:17:59;-12.61;66.58
60242;SHT30;46103;52.076;113.488;2024-02-16T17:22:05;-12.83;66.89
60242;SHT30;46103;52.076;113.488;2024-02-16T17:26:03;-12.98;67.28
60242;SHT30;46103;52.076;113.488;2024-02-16T17:29:43;-13.13;68.17
60242;SHT30;46103;52.076;113.488;2024-02-16T17:33:45;-13.01;68.31
60242;SHT30;46103;52.076;113.488;2024-02-16T17:37:54;-13.04;68.08
60242;SHT30;46103;52.076;113.488;2024-02-16T17:42:06;-12.99;67.70
60242;SHT30;46103;52.076;113.488;2024-02-16T17:50:27;-13.26;68.66
60242;SHT30;46103;52.076;113.488;2024-02-16T17:55:01;-13.22;69.65
60242;SHT30;46103;52.076;113.488;2024-02-16T17:59:00;-13.22;69.31
60242;SHT30;46103;52.076;113.488;2024-02-16T18:02:51;-13.19;69.29
60242;SHT30;46103;52.076;113.488;2024-02-16T18:06:47;-13.19;69.09
60242;SHT30;46103;52.076;113.488;2024-02-16T18:11:08;-13.12;68.64
60242;SHT30;46103;52.076;113.488;2024-02-16T18:15:10;-13.11;67.82
60242;SHT30;46103;52.076;113.488;2024-02-16T18:19:43;-13.12;67.65
60242;SHT30;46103;52.076;113.488;2024-02-16T18:23:41;-13.01;67.73
60242;SHT30;46103;52.076;113.488;2024-02-16T18:27:35;-12.95;66.72
60242;SHT30;46103;52.076;113.488;2024-02-16T18:31:52;-12.92;65.24
60242;SHT30;46103;52.076;113.488;2024-02-16T18:35:18;-12.94;63.56
60242;SHT30;46103;52.076;113.488;2024-02-16T18:39:28;-12.83;62.54
60242;SHT30;46103;52.076;113.488;2024-02-16T18:43:07;-12.75;62.74
60242;SHT30;46103;52.076;113.488;2024-02-16T18:47:09;-12.80;62.28
60242;SHT30;46103;52.076;113.488;2024-02-16T18:51:11;-12.74;61.86
60242;SHT30;46103;52.076;113.488;2024-02-16T18:54:58;-12.64;60.54
60242;SHT30;46103;52.076;113.488;2024-02-16T18:58:36;-12.56;59.77
60242;SHT30;46103;52.076;113.488;2024-02-16T19:02:37;-12.59;59.67
60242;SHT30;46103;52.076;113.488;2024-02-16T19:07:00;-12.68;60.24
60242;SHT30;46103;52.076;113.488;2024-02-16T19:10:33;-12.66;59.03
60242;SHT30;46103;52.076;113.488;2024-02-16T19:14:23;-12.70;59.47
60242;SHT30;46103;52.076;113.488;2024-02-16T19:18:12;-12.59;57.70
60242;SHT30;46103;52.076;113.488;2024-02-16T19:21:47;-12.37;53.68
60242;SHT30;46103;52.076;113.488;2024-02-16T19:25:25;-12.42;54.62
60242;SHT30;46103;52.076;113.488;2024-02-16T19:29:11;-12.33;52.33
60242;SHT30;46103;52.076;113.488;2024-02-16T19:33:21;-12.32;50.53
60242;SHT30;46103;52.076;113.488;2024-02-16T19:37:18;-12.25;50.15
60242;SHT30;46103;52.076;113.488;2024-02-16T19:45:01;-12.30;49.61
60242;SHT30;46103;52.076;113.488;2024-02-16T19:49:46;-12.26;48.49
60242;SHT30;46103;52.076;113.488;2024-02-16T19:53:57;-12.28;46.95
60242;SHT30;46103;52.076;113.488;2024-02-16T19:58:02;-12.36;47.06
60242;SHT30;46103;52.076;113.488;2024-02-16T20:02:58;-12.37;46.72
60242;SHT30;46103;52.076;113.488;2024-02-16T20:07:10;-12.42;47.03
60242;SHT30;46103;52.076;113.488;2024-02-16T20:10:28;-12.45;46.56
60242;SHT30;46103;52.076;113.488;2024-02-16T20:14:53;-12.45;46.58
60242;SHT30;46103;52.076;113.488;2024-02-16T20:18:39;-12.59;46.15
60242;SHT30;46103;52.076;113.488;2024-02-16T20:22:47;-12.66;46.58
60242;SHT30;46103;52.076;113.488;2024-02-16T20:27:09;-12.80;46.62
60242;SHT30;46103;52.076;113.488;2024-02-16T20:31:10;-12.91;47.18
60242;SHT30;46103;52.076;113.488;2024-02-16T20:35:26;-13.08;47.46
60242;SHT30;46103;52.076;113.488;2024-02-16T20:39:24;-13.23;47.70
60242;SHT30;46103;52.076;113.488;2024-02-16T20:48:04;-13.55;48.04
60242;SHT30;46103;52.076;113.488;2024-02-16T21:51:12;-14.54;48.44
60242;SHT30;46103;52.076;113.488;2024-02-16T22:13:33;-14.98;48.97
60242;SHT30;46103;52.076;113.488;2024-02-16T22:53:19;-15.59;48.56
